Time;durP1;ratioP1;P1;durP2;ratioP2;P2;SDS_P1;SDS_P2;PMS_P1;PMS_P2;Temp;Humidity;BMP_temperature;BMP_pressure;BME280_temperature;BME280_humidity;BME280_pressure;Samples;Min_cycle;Max_cycle;Signal;HPM_P1;HPM_P2
2022/06/22 00:02:08;;;;;;;8.73;4.03;;;;;;;10.51;100.00;155166.00;4945932;28;20078;-84
2022/06/22 00:04:44;;;;;;;8.05;3.55;;;;;;;10.47;100.00;155157.03;4956687;28;20078;-83
2022/06/22 00:07:17;;;;;;;10.73;4.20;;;;;;;10.44;100.00;155149.31;4924106;28;20151;-82
2022/06/22 00:09:44;;;;;;;4.57;3.35;;;;;;;10.46;100.00;155153.16;4925872;29;20035;-81
2022/06/22 00:12:24;;;;;;;7.28;3.70;;;;;;;10.45;100.00;155150.59;4941449;28;20039;-83
2022/06/22 00:14:53;;;;;;;8.60;3.50;;;;;;;10.39;100.00;155135.19;4960121;28;20030;-82
2022/06/22 00:17:25;;;;;;;13.52;3.92;;;;;;;10.40;100.00;155139.06;4945222;28;20085;-80
2022/06/22 00:19:58;;;;;;;9.10;4.28;;;;;;;10.45;100.00;155150.59;4953977;28;20050;-83
2022/06/22 00:22:25;;;;;;;8.43;3.63;;;;;;;10.42;100.00;155142.91;4940318;28;20042;-85
2022/06/22 00:25:00;;;;;;;8.05;3.60;;;;;;;10.44;100.00;155149.31;4941383;28;20038;-82
2022/06/22 00:27:36;;;;;;;8.02;3.90;;;;;;;10.45;100.00;155150.59;4962372;28;20039;-83
2022/06/22 00:30:26;;;;;;;5.85;4.10;;;;;;;10.41;100.00;155141.59;4968547;28;20039;-79
2022/06/22 00:33:13;;;;;;;7.85;3.95;;;;;;;10.40;100.00;155137.78;4940455;28;20042;-82
2022/06/22 00:35:47;;;;;;;9.57;4.00;;;;;;;10.32;100.00;155118.50;4955510;28;20110;-80
2022/06/22 00:38:17;;;;;;;6.85;4.45;;;;;;;10.25;100.00;155101.81;4947427;28;20070;-82
2022/06/22 00:40:43;;;;;;;9.82;4.88;;;;;;;10.17;100.00;155079.97;4988409;28;20113;-83
2022/06/22 00:43:15;;;;;;;8.65;4.38;;;;;;;10.10;100.00;155063.34;4949827;28;20133;-84
2022/06/22 00:45:42;;;;;;;5.80;4.40;;;;;;;10.02;100.00;155044.09;4967111;28;20098;-81
2022/06/22 00:48:22;;;;;;;10.32;4.70;;;;;;;10.13;100.00;155072.31;4967640;28;20045;-84
2022/06/22 00:51:13;;;;;;;6.07;4.03;;;;;;;10.12;100.00;155068.47;4961912;28;20046;-84
2022/06/22 00:53:43;;;;;;;10.10;4.53;;;;;;;10.13;100.00;155072.31;4989311;28;20781;-79
2022/06/22 00:56:33;;;;;;;9.82;4.50;;;;;;;10.15;100.00;155076.13;4964382;28;20772;-85
2022/06/22 00:59:36;;;;;;;11.02;5.00;;;;;;;10.21;100.00;155090.22;4955696;28;20100;-84
2022/06/22 01:02:08;;;;;;;;;;;;;;;10.13;100.00;155072.31;4985151;28;20043;-83
2022/06/22 01:04:43;;;;;;;7.53;4.57;;;;;;;10.11;100.00;155067.19;4973969;28;19914;-83
2022/06/22 01:07:41;;;;;;;9.88;4.90;;;;;;;10.14;100.00;155074.84;4961159;28;20042;-83
2022/06/22 01:10:26;;;;;;;8.15;4.80;;;;;;;10.16;100.00;155077.44;4929943;28;20039;-85
2022/06/22 01:12:58;;;;;;;11.43;4.72;;;;;;;10.04;100.00;155049.22;4972236;28;20038;-85
2022/06/22 01:15:25;;;;;;;7.57;4.28;;;;;;;9.97;100.00;155031.25;4954615;28;20042;-85
2022/06/22 01:18:04;;;;;;;7.80;4.60;;;;;;;9.88;100.00;155008.19;4954995;28;20049;-86
2022/06/22 01:20:51;;;;;;;7.28;4.20;;;;;;;9.90;100.00;155014.56;4957393;28;20042;-83
2022/06/22 01:23:22;;;;;;;4.88;4.40;;;;;;;9.91;100.00;155015.88;4957402;28;20042;-84
2022/06/22 01:26:05;;;;;;;10.20;4.95;;;;;;;9.85;100.00;155001.78;4947958;29;20051;-86
2022/06/22 01:28:30;;;;;;;8.90;5.45;;;;;;;9.88;100.00;155008.19;4971383;28;20039;-80
2022/06/22 01:31:03;;;;;;;7.45;5.45;;;;;;;9.85;100.00;155001.78;4966614;28;20041;-82
2022/06/22 01:33:37;;;;;;;9.10;5.13;;;;;;;9.84;100.00;154999.19;4956360;28;20022;-79
2022/06/22 01:36:16;;;;;;;8.55;5.47;;;;;;;9.79;100.00;154986.34;4948500;28;20508;-77
2022/06/22 01:38:41;;;;;;;12.10;5.82;;;;;;;9.75;100.00;154976.09;4945481;28;20046;-75
2022/06/22 01:41:39;;;;;;;12.70;5.88;;;;;;;9.70;100.00;154964.59;4945454;28;20031;-80
2022/06/22 01:44:18;;;;;;;10.80;5.93;;;;;;;9.61;100.00;154940.25;4950880;28;20041;-78
2022/06/22 01:47:16;;;;;;;10.73;6.10;;;;;;;9.57;100.00;154929.94;4947394;28;20537;-78
2022/06/22 01:50:08;;;;;;;10.75;5.53;;;;;;;9.50;100.00;154914.56;4974321;28;20113;-78
2022/06/22 01:52:40;;;;;;;11.98;6.03;;;;;;;9.44;100.00;154899.19;4929049;28;20432;-81
2022/06/22 01:55:39;;;;;;;8.45;6.00;;;;;;;9.40;100.00;154887.63;4962999;28;20039;-80
2022/06/22 01:58:14;;;;;;;9.18;5.97;;;;;;;9.40;100.00;154888.94;4963677;28;20054;-79
2022/06/22 02:00:41;;;;;;;10.50;6.53;;;;;;;9.39;100.00;154885.09;4954418;28;20098;-78
2022/06/22 02:03:19;;;;;;;8.52;6.38;;;;;;;9.49;100.00;154910.72;4971722;28;20242;-81
2022/06/22 02:05:52;;;;;;;11.95;6.50;;;;;;;9.41;100.00;154890.22;4944081;28;20066;-80
2022/06/22 02:08:27;;;;;;;13.38;6.45;;;;;;;9.38;100.00;154883.81;4981562;28;20050;-79
2022/06/22 02:11:04;;;;;;;8.20;5.78;;;;;;;9.38;100.00;154883.81;4961647;28;20035;-78
2022/06/22 02:13:40;;;;;;;10.38;7.25;;;;;;;9.33;100.00;154872.25;4974667;28;20071;-79
2022/06/22 02:16:24;;;;;;;11.63;6.53;;;;;;;9.29;100.00;154860.75;4992826;28;20034;-79
2022/06/22 02:18:54;;;;;;;14.55;6.88;;;;;;;9.18;100.00;154833.81;4953831;28;20047;-79
2022/06/22 02:22:01;;;;;;;9.00;6.43;;;;;;;9.15;100.00;154827.44;4935940;28;20038;-77
2022/06/22 02:24:39;;;;;;;12.27;7.35;;;;;;;9.16;100.00;154829.97;4884185;29;20041;-78
2022/06/22 02:27:18;;;;;;;10.25;6.97;;;;;;;9.11;100.00;154815.88;4928354;28;20080;-78
2022/06/22 02:29:51;;;;;;;10.50;7.47;;;;;;;9.11;100.00;154817.13;4968689;28;20034;-77
2022/06/22 02:32:28;;;;;;;11.10;7.60;;;;;;;9.03;100.00;154795.38;4969533;28;20134;-78
2022/06/22 02:34:56;;;;;;;11.98;7.85;;;;;;;8.95;100.00;154777.41;4936389;28;20066;-80
2022/06/22 02:37:26;;;;;;;13.45;7.30;;;;;;;8.98;100.00;154783.81;4952847;28;20034;-79
2022/06/22 02:39:56;;;;;;;11.45;7.60;;;;;;;8.98;100.00;154782.53;4960124;28;20505;-78
2022/06/22 02:45:09;;;;;;;12.13;7.35;;;;;;;9.02;100.00;154794.06;4974795;28;20042;-80
2022/06/22 02:47:49;;;;;;;10.50;7.60;;;;;;;9.00;100.00;154787.66;4987801;28;20035;-80
2022/06/22 02:50:38;;;;;;;12.32;8.05;;;;;;;8.92;100.00;154769.72;4952962;28;20552;-80
2022/06/22 02:53:16;;;;;;;11.60;7.50;;;;;;;8.93;100.00;154771.03;4956433;28;20049;-78
2022/06/22 02:55:42;;;;;;;16.27;7.78;;;;;;;8.86;100.00;154754.34;4972537;28;20034;-79
2022/06/22 02:58:40;;;;;;;11.98;7.65;;;;;;;8.86;100.00;154754.34;4978911;28;20077;-78
2022/06/22 03:01:13;;;;;;;12.05;7.65;;;;;;;8.89;100.00;154760.75;4906235;28;20154;-80
2022/06/22 03:03:52;;;;;;;13.18;7.28;;;;;;;8.86;100.00;154753.06;4968813;28;20521;-77
2022/06/22 03:06:22;;;;;;;10.98;7.68;;;;;;;8.77;100.00;154732.53;4963319;28;20524;-78
2022/06/22 03:08:49;;;;;;;13.63;8.13;;;;;;;8.73;100.00;154722.31;4958476;28;20046;-80
2022/06/22 03:11:16;;;;;;;11.32;7.88;;;;;;;8.78;100.00;154733.84;4959356;28;20042;-76
2022/06/22 03:13:46;;;;;;;13.25;9.23;;;;;;;8.68;100.00;154708.22;4965535;28;20062;-79
2022/06/22 03:16:27;;;;;;;11.25;8.40;;;;;;;8.79;100.00;154736.41;4959511;28;20070;-78
2022/06/22 03:18:56;;;;;;;11.05;8.15;;;;;;;8.87;100.00;154755.63;4953896;28;20038;-77
2022/06/22 03:21:22;;;;;;;11.48;8.02;;;;;;;8.76;100.00;154728.75;4978056;28;20073;-78
2022/06/22 03:23:54;;;;;;;13.98;8.55;;;;;;;8.72;100.00;154719.78;4948694;28;20050;-78
2022/06/22 03:26:24;;;;;;;12.73;8.40;;;;;;;8.75;100.00;154727.44;4968727;28;20760;-78
2022/06/22 03:29:01;;;;;;;15.40;9.30;;;;;;;8.81;100.00;154740.25;4952723;28;20038;-77
2022/06/22 03:31:32;;;;;;;18.00;10.15;;;;;;;8.71;100.00;154715.91;4935724;28;20712;-77
2022/06/22 03:34:02;;;;;;;14.98;9.07;;;;;;;8.74;100.00;154724.88;4984702;28;20039;-79
2022/06/22 03:36:38;;;;;;;16.08;9.20;;;;;;;8.81;100.00;154740.25;4946422;28;20031;-77
2022/06/22 03:39:11;;;;;;;9.93;8.52;;;;;;;8.76;100.00;154730.00;4945414;28;20042;-79
2022/06/22 03:41:45;;;;;;;12.45;9.82;;;;;;;8.85;100.00;154751.75;4962160;28;20039;-78
2022/06/22 03:44:22;;;;;;;17.33;9.65;;;;;;;8.80;100.00;154737.66;4946790;28;20114;-79
2022/06/22 03:47:01;;;;;;;12.50;8.90;;;;;;;8.86;100.00;154754.34;4967404;28;20065;-78
2022/06/22 03:49:56;;;;;;;14.38;9.00;;;;;;;8.95;100.00;154777.41;4968240;28;20128;-78
2022/06/22 03:52:32;;;;;;;13.30;8.85;;;;;;;8.98;100.00;154783.81;4968957;28;20046;-78
2022/06/22 03:55:04;;;;;;;14.95;8.68;;;;;;;9.03;100.00;154796.63;4949801;29;20077;-79
2022/06/22 03:57:37;;;;;;;19.08;9.80;;;;;;;9.07;100.00;154805.63;4957148;28;20093;-80
2022/06/22 04:00:06;;;;;;;18.33;11.30;;;;;;;9.12;100.00;154818.44;4951623;28;20718;-73
2022/06/22 04:02:32;;;;;;;18.10;10.68;;;;;;;9.12;100.00;154818.44;4971349;28;20113;-78
2022/06/22 04:04:59;;;;;;;15.23;10.93;;;;;;;9.22;100.00;154844.06;4964290;28;20035;-77
2022/06/22 04:07:31;;;;;;;16.40;10.85;;;;;;;9.22;100.00;154844.06;4967046;28;20035;-78
2022/06/22 04:09:57;;;;;;;19.37;10.87;;;;;;;9.33;100.00;154871.00;4957388;28;20038;-77
2022/06/22 04:12:29;;;;;;;15.30;11.05;;;;;;;9.39;100.00;154886.38;4959850;28;20118;-78
2022/06/22 04:15:29;;;;;;;15.02;10.68;;;;;;;9.44;100.00;154899.19;4966476;28;20065;-78
2022/06/22 04:18:05;;;;;;;16.33;10.25;;;;;;;9.63;100.00;154946.63;4961698;28;20047;-78
2022/06/22 04:21:03;;;;;;;13.50;10.27;;;;;;;9.68;100.00;154959.47;4953973;28;20056;-80
2022/06/22 04:23:46;;;;;;;18.70;11.40;;;;;;;9.82;100.00;154992.81;4924460;28;20035;-78
2022/06/22 04:26:12;;;;;;;16.70;11.48;;;;;;;9.98;100.00;155032.53;4952043;28;20040;-78
2022/06/22 04:28:44;;;;;;;13.82;10.93;;;;;;;10.14;100.00;155074.84;4965321;28;20034;-78
2022/06/22 04:31:17;;;;;;;15.35;10.85;;;;;;;10.22;100.00;155092.81;4976791;28;20045;-79
2022/06/22 04:33:47;;;;;;;16.10;10.95;;;;;;;10.38;100.00;155133.94;4962806;28;20030;-78
2022/06/22 04:36:19;;;;;;;20.48;11.10;;;;;;;10.49;100.00;155162.16;4981343;28;20498;-78
2022/06/22 04:39:11;;;;;;;15.18;11.52;;;;;;;10.51;100.00;155166.00;4954506;28;20026;-78
2022/06/22 04:41:38;;;;;;;15.32;10.00;;;;;;;10.63;100.00;155196.78;4975348;28;20071;-78
2022/06/22 04:44:17;;;;;;;18.13;10.90;;;;;;;10.70;100.00;155214.75;4959125;28;20042;-80
2022/06/22 04:46:52;;;;;;;18.58;11.52;;;;;;;10.99;100.00;155286.59;4961309;28;20030;-78
2022/06/22 04:49:45;;;;;;;18.98;10.90;;;;;;;11.05;100.00;155300.72;4960832;28;20110;-78
2022/06/22 04:52:18;;;;;;;13.20;9.85;;;;;;;11.12;100.00;155318.69;4948298;28;20049;-80
2022/06/22 04:54:47;;;;;;;16.88;10.90;;;;;;;11.25;100.00;155350.78;4953631;28;20102;-80
2022/06/22 04:57:21;;;;;;;16.70;10.10;;;;;;;11.39;100.00;155385.41;4971159;28;20045;-80
2022/06/22 04:59:48;;;;;;;19.85;11.70;;;;;;;11.53;100.00;155421.38;4968396;28;20035;-83
2022/06/22 05:02:17;;;;;;;16.83;11.07;;;;;;;11.77;100.00;155481.72;4958315;28;20046;-81
2022/06/22 05:04:48;;;;;;;21.38;10.63;;;;;;;11.81;100.00;155492.00;4976715;28;20046;-78
2022/06/22 05:07:21;;;;;;;18.42;10.13;;;;;;;12.17;100.00;155581.91;4969210;28;20391;-80
2022/06/22 05:09:59;;;;;;;16.38;9.52;;;;;;;12.31;100.00;155615.31;4963044;28;20054;-80
2022/06/22 05:12:29;;;;;;;13.82;9.45;;;;;;;12.26;100.00;155605.03;4966032;28;20067;-79
2022/06/22 05:14:57;;;;;;;20.17;9.57;;;;;;;12.31;100.00;155616.56;4976230;28;20559;-80
2022/06/22 05:17:31;;;;;;;15.05;9.23;;;;;;;12.46;100.00;155655.09;4975001;28;20486;-78
2022/06/22 05:20:20;;;;;;;14.40;7.30;;;;;;;12.66;100.00;155703.94;4981438;28;20104;-77
2022/06/22 05:22:49;;;;;;;13.85;6.88;;;;;;;12.78;100.00;155733.47;4958514;28;20030;-78
2022/06/22 05:25:17;;;;;;;12.90;6.90;;;;;;;12.86;100.00;155754.03;4969931;28;20030;-76
2022/06/22 05:27:59;;;;;;;9.35;5.35;;;;;;;12.98;100.00;155784.88;4985743;28;20578;-77
2022/06/22 05:30:27;;;;;;;10.07;4.82;;;;;;;13.03;100.00;155796.41;4939757;28;20049;-77
2022/06/22 05:33:02;;;;;;;12.00;5.20;;;;;;;13.23;100.00;155847.81;4967700;28;20050;-78
2022/06/22 05:35:40;;;;;;;10.95;4.45;;;;;;;13.26;100.00;155854.28;4931013;28;20501;-77
2022/06/22 05:38:09;;;;;;;9.98;3.88;;;;;;;13.30;100.00;155863.22;4990785;28;20042;-79
2022/06/22 05:40:37;;;;;;;11.60;3.85;;;;;;;13.46;100.00;155904.44;4973549;28;20102;-78
2022/06/22 05:43:05;;;;;;;10.98;3.70;;;;;;;13.41;100.00;155891.56;4983816;28;20130;-77
2022/06/22 05:45:38;;;;;;;7.78;3.60;;;;;;;13.70;100.00;155963.56;4995057;28;20044;-79
2022/06/22 05:48:05;;;;;;;7.10;3.63;;;;;;;13.67;100.00;155955.84;4973379;28;20043;-77
2022/06/22 05:50:41;;;;;;;9.35;4.05;;;;;;;13.70;100.00;155964.84;4998577;28;20037;-79
2022/06/22 05:53:22;;;;;;;12.32;4.03;;;;;;;13.86;100.00;156003.41;4995229;28;20038;-79
2022/06/22 05:56:07;;;;;;;9.73;3.30;;;;;;;14.00;100.00;156039.41;4956404;28;20039;-79
2022/06/22 05:58:51;;;;;;;7.45;3.65;;;;;;;14.12;100.00;156070.25;4959132;28;20612;-78
2022/06/22 06:01:33;;;;;;;9.98;3.50;;;;;;;14.36;100.00;156130.69;5000493;28;20099;-77
2022/06/22 06:04:13;;;;;;;13.48;3.42;;;;;;;14.39;100.00;156138.41;4995051;28;20037;-79
2022/06/22 06:06:41;;;;;;;8.88;3.67;;;;;;;14.44;100.00;156148.69;4990929;28;20039;-80
2022/06/22 06:09:13;;;;;;;10.85;3.92;;;;;;;14.54;100.00;156174.41;4958381;28;20074;-80
2022/06/22 06:11:45;;;;;;;10.65;4.00;;;;;;;14.54;100.00;156175.72;4976394;28;20027;-79
2022/06/22 06:14:27;;;;;;;9.95;4.05;;;;;;;14.50;100.00;156165.41;4948652;28;20062;-80
2022/06/22 06:16:56;;;;;;;11.35;4.25;;;;;;;14.66;100.00;156205.34;4971548;28;20061;-81
2022/06/22 06:19:28;;;;;;;9.48;3.50;;;;;;;14.82;100.00;156243.91;4972722;28;20077;-80
2022/06/22 06:21:58;;;;;;;9.75;4.05;;;;;;;15.03;100.00;156297.97;4967332;28;20035;-80
2022/06/22 06:24:37;;;;;;;9.15;3.70;;;;;;;15.20;100.00;156340.44;4942311;28;20043;-80
2022/06/22 06:30:00;;;;;;;11.02;3.63;;;;;;;15.34;100.00;156376.44;4970056;28;20038;-80
2022/06/22 06:32:39;;;;;;;9.43;4.00;;;;;;;15.41;100.00;156393.19;4970943;28;20034;-78
2022/06/22 06:35:43;;;;;;;11.27;4.07;;;;;;;15.64;100.00;156451.06;4951962;28;20137;-81
2022/06/22 06:38:28;;;;;;;12.88;4.05;;;;;;;15.69;100.00;156462.63;4939057;28;20539;-81
2022/06/22 06:41:05;;;;;;;8.10;4.25;;;;;;;15.73;100.00;156474.28;4948219;28;20038;-80
2022/06/22 06:43:41;;;;;;;12.07;4.28;;;;;;;15.81;100.00;156492.31;4966643;28;20038;-80
2022/06/22 06:46:27;;;;;;;9.95;3.70;;;;;;;15.89;100.00;156512.88;4969740;28;20489;-81
2022/06/22 06:49:03;;;;;;;13.88;4.30;;;;;;;15.89;100.00;156512.88;4942965;28;20494;-79
2022/06/22 06:51:30;;;;;;;9.98;3.50;;;;;;;16.08;100.00;156561.78;4985724;28;20035;-79
2022/06/22 06:54:06;;;;;;;10.38;3.92;;;;;;;16.28;100.00;156612.00;4972165;28;20026;-80
2022/06/22 06:56:43;;;;;;;11.77;4.05;;;;;;;16.24;99.93;156601.72;4972526;28;20031;-79
2022/06/22 06:59:15;;;;;;;9.63;3.58;;;;;;;16.07;98.14;156559.25;4987836;28;20184;-78
2022/06/22 07:01:44;;;;;;;7.83;3.67;;;;;;;16.25;97.68;156603.00;4986704;28;20051;-76
2022/06/22 07:04:23;;;;;;;12.90;3.60;;;;;;;16.36;96.24;156631.31;4946238;28;20039;-77
2022/06/22 07:06:48;;;;;;;9.10;3.78;;;;;;;16.48;95.26;156660.91;4982369;28;20051;-77
2022/06/22 07:09:21;;;;;;;8.85;3.53;;;;;;;16.63;98.20;156699.59;4947498;28;20103;-79
2022/06/22 07:11:50;;;;;;;13.02;3.80;;;;;;;16.49;94.60;156663.50;4956052;28;20035;-79
2022/06/22 07:14:28;;;;;;;12.52;3.75;;;;;;;16.49;95.51;156664.78;4946070;28;20031;-75
2022/06/22 07:17:00;;;;;;;11.95;4.25;;;;;;;16.74;94.24;156726.59;4965944;28;20110;-81
2022/06/22 07:19:31;;;;;;;7.97;3.20;;;;;;;16.86;93.40;156757.56;4970366;28;20045;-79
2022/06/22 07:22:04;;;;;;;11.63;3.50;;;;;;;17.07;93.75;156809.09;4975203;28;20049;-79
2022/06/22 07:24:57;;;;;;;11.75;3.80;;;;;;;16.75;93.09;156729.19;4959739;28;20317;-78
2022/06/22 07:27:22;;;;;;;11.45;4.35;;;;;;;17.04;95.03;156801.34;4947401;28;20050;-78
2022/06/22 07:29:57;;;;;;;10.88;3.67;;;;;;;17.44;91.33;156903.13;4973630;28;20049;-81
2022/06/22 07:32:37;;;;;;;12.15;3.42;;;;;;;17.70;87.71;156967.53;4959382;28;20047;-79
2022/06/22 07:35:09;;;;;;;10.85;3.70;;;;;;;17.84;88.58;157003.66;4971621;28;20061;-80
2022/06/22 07:37:42;;;;;;;10.73;3.88;;;;;;;17.77;86.89;156984.28;4970113;28;20083;-81
2022/06/22 07:40:15;;;;;;;10.43;3.30;;;;;;;17.92;88.04;157023.00;4985567;28;20042;-79
2022/06/22 07:42:45;;;;;;;8.35;3.75;;;;;;;18.18;85.61;157087.44;4969708;28;20065;-82
2022/06/22 07:45:17;;;;;;;13.88;3.80;;;;;;;18.20;85.12;157093.88;4972465;28;20034;-82
2022/06/22 07:48:01;;;;;;;15.50;4.20;;;;;;;18.26;86.69;157109.31;4933731;28;20073;-80
2022/06/22 07:50:35;;;;;;;11.63;3.63;;;;;;;18.20;86.22;157093.88;4962327;28;20051;-78
2022/06/22 07:53:33;;;;;;;14.18;3.67;;;;;;;18.41;86.39;157145.44;4958687;28;20067;-79
2022/06/22 07:56:26;;;;;;;9.75;3.60;;;;;;;18.56;84.84;157184.09;4964462;28;20038;-82
2022/06/22 07:58:57;;;;;;;14.75;3.40;;;;;;;18.65;86.97;157206.03;4968482;28;20096;-82
2022/06/22 08:01:29;;;;;;;12.40;4.32;;;;;;;18.38;85.22;157137.69;4952694;28;20050;-79
2022/06/22 08:04:18;;;;;;;13.05;3.95;;;;;;;18.35;85.65;157131.25;4978912;28;20132;-78
2022/06/22 08:06:50;;;;;;;11.68;3.80;;;;;;;18.50;84.51;157168.63;4940001;28;20038;-79
2022/06/22 08:09:26;;;;;;;11.63;3.83;;;;;;;18.87;81.31;157261.47;4968284;28;20050;-79
2022/06/22 08:12:03;;;;;;;14.15;3.55;;;;;;;19.06;81.27;157310.50;4951291;28;20073;-81
2022/06/22 08:14:35;;;;;;;15.15;3.47;;;;;;;19.23;79.98;157353.06;4948477;28;20047;-80
2022/06/22 08:17:05;;;;;;;12.70;3.80;;;;;;;19.42;81.36;157400.75;4947072;28;20019;-78
2022/06/22 08:19:32;;;;;;;16.67;3.85;;;;;;;19.02;78.81;157298.88;4988271;28;20034;-79
2022/06/22 08:22:04;;;;;;;11.63;3.50;;;;;;;19.08;78.53;157314.38;4980853;28;20035;-78
2022/06/22 08:24:33;;;;;;;8.13;3.25;;;;;;;19.15;79.80;157331.13;4984399;28;20027;-80
2022/06/22 08:27:00;;;;;;;12.23;3.70;;;;;;;19.26;78.52;157359.47;4968310;28;20047;-77
2022/06/22 08:29:34;;;;;;;11.95;3.60;;;;;;;19.40;77.34;157395.59;4971104;28;20105;-80
2022/06/22 08:32:08;;;;;;;14.60;3.97;;;;;;;19.75;80.00;157482.06;4981514;28;20035;-78
2022/06/22 08:34:50;;;;;;;11.45;3.72;;;;;;;19.91;75.33;157522.03;4952158;28;20031;-79
2022/06/22 08:37:23;;;;;;;14.05;3.70;;;;;;;19.84;74.41;157506.56;4980097;28;20038;-77
2022/06/22 08:39:54;;;;;;;13.35;3.35;;;;;;;19.53;76.03;157426.53;4943049;29;20051;-79
2022/06/22 08:42:28;;;;;;;8.40;3.00;;;;;;;19.79;78.62;157493.66;4958294;28;20038;-77
2022/06/22 08:45:33;;;;;;;10.55;3.45;;;;;;;20.15;75.54;157582.66;4957398;28;20049;-79
2022/06/22 08:48:27;;;;;;;15.20;3.67;;;;;;;20.27;74.82;157613.66;4950903;28;20075;-79
2022/06/22 08:51:13;;;;;;;10.80;4.20;;;;;;;20.06;72.63;157560.78;4968030;28;20133;-80
2022/06/22 08:53:58;;;;;;;8.65;3.08;;;;;;;20.34;74.77;157630.41;4964106;28;20050;-80
2022/06/22 08:56:38;;;;;;;6.90;3.20;;;;;;;20.48;73.83;157666.56;4962986;28;20456;-79
2022/06/22 08:59:18;;;;;;;10.65;3.60;;;;;;;20.27;73.16;157613.66;4972131;28;20518;-77
2022/06/22 09:02:22;;;;;;;9.25;3.70;;;;;;;20.46;71.62;157660.13;4986583;28;20034;-75
2022/06/22 09:05:21;;;;;;;14.50;3.90;;;;;;;20.55;70.48;157684.63;4949748;28;20557;-79
2022/06/22 09:08:18;;;;;;;11.38;4.28;;;;;;;20.88;69.81;157767.25;4981636;28;20074;-79
2022/06/22 09:11:01;;;;;;;8.80;3.00;;;;;;;20.90;75.13;157772.41;4985705;28;20039;-78
2022/06/22 09:13:56;;;;;;;11.73;3.85;;;;;;;20.74;73.33;157731.16;4970404;28;20045;-79
2022/06/22 09:16:47;;;;;;;9.20;3.40;;;;;;;21.19;69.71;157846.00;4988254;28;20042;-80
2022/06/22 09:19:41;;;;;;;11.93;3.97;;;;;;;21.12;67.80;157827.94;4992560;28;20034;-77
2022/06/22 09:22:14;;;;;;;8.60;3.08;;;;;;;21.37;65.60;157889.88;4974312;28;20035;-78
2022/06/22 09:24:58;;;;;;;11.52;3.60;;;;;;;21.66;67.46;157962.22;4971342;28;20054;-77
2022/06/22 09:27:35;;;;;;;13.57;4.22;;;;;;;21.82;63.86;158002.28;4956093;28;20039;-78
2022/06/22 09:30:40;;;;;;;8.80;3.38;;;;;;;22.06;67.81;158064.25;4976597;28;20085;-81
2022/06/22 09:33:17;;;;;;;10.48;3.78;;;;;;;22.08;64.29;158069.44;4986580;28;20038;-81
2022/06/22 09:36:24;;;;;;;7.70;3.38;;;;;;;22.11;65.33;158077.19;4969328;28;20046;-80
2022/06/22 09:39:17;;;;;;;11.77;3.88;;;;;;;21.80;62.88;157997.13;4983965;28;20053;-78
2022/06/22 09:42:05;;;;;;;8.85;3.78;;;;;;;21.49;67.12;157920.94;4972716;28;20055;-78
2022/06/22 09:44:49;;;;;;;9.23;3.83;;;;;;;21.24;66.45;157857.59;4969086;28;20046;-78
2022/06/22 09:47:40;;;;;;;13.63;4.20;;;;;;;20.88;66.69;157765.97;4983433;28;20023;-78
2022/06/22 09:50:11;;;;;;;10.35;4.00;;;;;;;20.87;68.64;157763.38;4982113;28;20049;-78
2022/06/22 09:53:11;;;;;;;7.07;3.47;;;;;;;21.64;69.51;157958.34;4987781;28;20081;-78
2022/06/22 09:58:54;;;;;;;8.20;3.38;;;;;;;21.54;65.75;157933.81;4950193;28;20035;-79
2022/06/22 10:01:58;;;;;;;7.82;3.50;;;;;;;21.42;65.34;157902.81;4947740;28;20049;-78
2022/06/22 10:04:59;;;;;;;8.82;3.40;;;;;;;22.07;62.25;158066.81;4957636;28;20050;-77
2022/06/22 10:07:53;;;;;;;7.40;3.17;;;;;;;22.74;59.51;158234.81;4954704;28;20046;-78
2022/06/22 10:10:37;;;;;;;11.80;3.75;;;;;;;23.00;59.91;158299.38;4965501;28;20047;-78
2022/06/22 10:13:32;;;;;;;10.75;3.22;;;;;;;23.19;58.67;158347.25;4962735;28;20429;-78
2022/06/22 10:16:16;;;;;;;8.07;3.40;;;;;;;23.24;58.27;158361.47;4952667;28;20062;-77
2022/06/22 10:18:57;;;;;;;8.45;3.60;;;;;;;23.42;56.75;158406.72;4951454;28;20129;-78
2022/06/22 10:21:55;;;;;;;8.57;3.75;;;;;;;23.19;56.50;158348.56;4951661;28;20497;-78
2022/06/22 10:25:00;;;;;;;12.02;3.50;;;;;;;23.59;55.24;158448.09;4931913;28;20043;-77
2022/06/22 10:27:51;;;;;;;8.57;3.50;;;;;;;23.13;57.93;158333.03;4954233;28;20066;-80
2022/06/22 10:30:37;;;;;;;7.20;3.15;;;;;;;22.85;60.28;158263.25;4964435;28;20836;-79
2022/06/22 10:33:41;;;;;;;7.93;3.25;;;;;;;22.61;63.17;158202.50;4928548;28;20058;-78
2022/06/22 10:36:25;;;;;;;10.23;3.30;;;;;;;22.93;58.10;158283.91;4948567;28;20035;-80
2022/06/22 10:39:25;;;;;;;11.73;3.55;;;;;;;23.53;57.60;158433.88;4969223;28;20046;-81
2022/06/22 10:45:40;;;;;;;11.40;3.70;;;;;;;22.45;57.71;158161.16;4922230;28;20056;-84
2022/06/22 10:48:43;;;;;;;4.75;3.20;;;;;;;21.85;58.58;158011.31;4940344;28;20051;-83
2022/06/22 10:51:27;;;;;;;10.63;3.05;;;;;;;21.57;60.25;157940.31;4945732;28;20046;-80
2022/06/22 10:54:11;;;;;;;10.13;3.08;;;;;;;22.40;61.36;158149.56;4946111;28;20130;-80
2022/06/22 10:56:49;;;;;;;10.50;3.50;;;;;;;23.04;54.73;158311.09;4984404;28;20163;-78
2022/06/22 10:59:33;;;;;;;7.50;4.00;;;;;;;23.35;53.57;158387.31;4991685;28;20544;-82
2022/06/22 11:02:33;;;;;;;7.82;3.92;;;;;;;23.76;54.27;158492.03;4986664;28;20039;-79
2022/06/22 11:05:32;;;;;;;9.65;3.42;;;;;;;24.01;52.03;158555.38;4984845;28;20410;-77
2022/06/22 11:08:36;;;;;;;7.00;3.13;;;;;;;24.03;52.88;158560.56;4954155;28;20057;-77
2022/06/22 11:11:26;;;;;;;8.13;2.83;;;;;;;23.98;50.86;158547.66;4970169;28;20572;-81
2022/06/22 11:13:58;;;;;;;14.95;3.15;;;;;;;24.36;52.63;158643.31;4941538;28;20042;-82
2022/06/22 11:16:38;;;;;;;6.25;2.53;;;;;;;24.58;49.72;158697.66;4966557;28;20027;-78
2022/06/22 11:19:16;;;;;;;8.65;2.75;;;;;;;24.59;50.61;158700.25;4970666;28;20049;-79
2022/06/22 11:22:25;;;;;;;7.10;2.53;;;;;;;24.59;47.98;158701.53;4961115;28;20034;-82
2022/06/22 11:25:09;;;;;;;4.95;2.20;;;;;;;24.68;49.58;158723.56;4931233;28;20118;-78
2022/06/22 11:31:23;;;;;;;12.02;3.30;;;;;;;24.65;48.07;158715.78;4947268;28;20397;-81
2022/06/22 11:33:58;;;;;;;6.50;2.83;;;;;;;24.57;48.68;158696.38;4954719;28;20042;-80
2022/06/22 11:36:52;;;;;;;8.07;2.88;;;;;;;24.39;48.00;158649.78;4972982;28;20035;-78
2022/06/22 11:39:40;;;;;;;8.48;2.92;;;;;;;24.22;51.45;158607.09;4983265;28;20046;-80
2022/06/22 11:42:31;;;;;;;8.05;2.88;;;;;;;24.46;52.16;158667.88;4972596;28;20074;-81
2022/06/22 11:47:53;;;;;;;10.32;3.10;;;;;;;24.91;49.85;158781.72;4988132;28;20050;-82
2022/06/22 11:50:35;;;;;;;7.18;2.72;;;;;;;24.73;47.65;158736.44;4984021;28;20086;-79
2022/06/22 11:53:09;;;;;;;8.02;2.50;;;;;;;24.73;47.06;158736.44;4964181;28;20039;-80
2022/06/22 11:55:44;;;;;;;6.18;2.28;;;;;;;24.87;48.01;158771.41;4960261;28;20043;-80
2022/06/22 11:58:53;;;;;;;7.15;2.10;;;;;;;25.11;45.49;158830.84;4965388;28;20071;-79
2022/06/22 12:01:38;;;;;;;7.10;2.15;;;;;;;25.09;46.27;158825.69;4962429;28;20049;-81
2022/06/22 12:04:41;;;;;;;4.80;1.98;;;;;;;25.41;48.24;158907.22;4959389;28;20408;-81
2022/06/22 12:07:41;;;;;;;5.40;2.40;;;;;;;25.59;43.37;158952.53;4964346;28;20072;-82
2022/06/22 12:10:40;;;;;;;4.35;1.70;;;;;;;25.58;42.46;158949.91;4931459;28;20050;-77
2022/06/22 12:13:34;;;;;;;3.17;1.48;;;;;;;25.63;42.72;158964.16;4935152;28;20034;-82
2022/06/22 12:15:59;;;;;;;5.10;1.70;;;;;;;25.81;46.03;159009.44;4950977;28;20031;-84
2022/06/22 12:18:46;;;;;;;5.13;1.67;;;;;;;26.03;43.97;159065.16;4954379;28;20038;-80
2022/06/22 12:21:27;;;;;;;6.85;2.45;;;;;;;25.80;43.24;159006.84;4937420;28;20046;-83
2022/06/22 12:23:56;;;;;;;8.50;2.30;;;;;;;25.97;42.76;159048.31;4984804;28;20074;-83
2022/06/22 12:26:51;;;;;;;8.25;2.30;;;;;;;25.84;43.25;159015.91;4970783;28;20050;-82
2022/06/22 12:29:45;;;;;;;8.82;2.22;;;;;;;26.15;43.64;159094.91;4974689;28;20046;-80
2022/06/22 12:32:21;;;;;;;5.63;1.63;;;;;;;26.25;41.92;159118.19;4946090;28;20118;-82